Time,TemperatureF,DewpointF,PressureIn,WindDirection,WindDirectionDegrees,WindSpeedMPH,WindSpeedGustMPH,Humidity,HourlyPrecipIn,Conditions,Clouds,dailyrainin,SoftwareType,DateUTC
2013-02-08 00:00:00,27.0,20.0,30.31,East,90,3.0,6.0,79,0.00,,,0.00,TxWx,2013-02-08 05:00:00,
2013-02-08 00:02:00,27.0,20.0,30.31,ENE,67,3.0,5.0,79,0.00,,,0.00,TxWx,2013-02-08 05:02:00,
2013-02-08 00:03:00,27.0,20.0,30.31,ENE,67,5.0,6.0,79,0.00,,,0.00,TxWx,2013-02-08 05:03:00,
2013-02-08 00:04:00,27.0,20.0,30.31,SSE,157,4.0,5.0,79,0.00,,,0.00,TxWx,2013-02-08 05:04:00,
2013-02-08 00:10:00,27.0,20.0,30.31,ENE,67,3.0,4.0,79,0.00,,,0.00,TxWx,2013-02-08 05:10:00,
2013-02-08 00:15:00,27.0,21.0,30.31,ENE,67,5.0,5.0,80,0.00,,,0.00,TxWx,2013-02-08 05:15:00,
2013-02-08 00:20:00,27.0,21.0,30.31,ENE,67,3.0,6.0,80,0.00,,,0.00,TxWx,2013-02-08 05:20:00,
2013-02-08 00:26:00,27.0,21.0,30.30,East,90,3.0,6.0,80,0.00,,,0.00,TxWx,2013-02-08 05:26:00,
2013-02-08 00:31:00,27.0,21.0,30.30,NE,45,3.0,7.0,80,0.00,,,0.00,TxWx,2013-02-08 05:31:00,
2013-02-08 00:37:00,27.0,21.0,30.30,East,90,3.0,5.0,80,0.00,,,0.00,TxWx,2013-02-08 05:37:00,
2013-02-08 00:42:00,27.0,21.0,30.29,NNE,22,2.0,3.0,80,0.00,,,0.00,TxWx,2013-02-08 05:42:00,
2013-02-08 00:48:00,27.0,21.0,30.29,East,90,3.0,5.0,80,0.00,,,0.00,TxWx,2013-02-08 05:48:00,
2013-02-08 00:54:00,27.0,21.0,30.28,East,90,3.0,6.0,81,0.00,,,0.00,TxWx,2013-02-08 05:54:00,
2013-02-08 00:59:00,27.0,21.0,30.28,East,90,3.0,7.0,81,0.00,,,0.00,TxWx,2013-02-08 05:59:00,
2013-02-08 01:05:00,27.0,21.0,30.28,ENE,67,4.0,5.0,81,0.00,,,0.00,TxWx,2013-02-08 06:05:00,
2013-02-08 01:10:00,27.0,21.0,30.28,NE,45,6.0,8.0,81,0.00,,,0.00,TxWx,2013-02-08 06:10:00,
2013-02-08 01:15:00,27.0,21.0,30.28,ENE,67,3.0,3.0,82,0.00,,,0.00,TxWx,2013-02-08 06:15:00,
2013-02-08 01:21:00,27.0,21.0,30.28,NNE,22,4.0,5.0,82,0.00,,,0.00,TxWx,2013-02-08 06:21:00,
2013-02-08 01:26:00,27.0,21.0,30.27,East,90,4.0,5.0,82,0.00,,,0.00,TxWx,2013-02-08 06:26:00,
2013-02-08 01:32:00,27.0,21.0,30.27,NE,45,4.0,7.0,82,0.00,,,0.00,TxWx,2013-02-08 06:32:00,
2013-02-08 01:37:00,27.0,21.0,30.27,North,0,3.0,4.0,82,0.00,,,0.00,TxWx,2013-02-08 06:37:00,
2013-02-08 01:43:00,27.0,21.0,30.27,NE,45,4.0,6.0,82,0.00,,,0.00,TxWx,2013-02-08 06:43:00,
2013-02-08 01:49:00,27.0,21.0,30.27,ENE,67,3.0,5.0,83,0.00,,,0.00,TxWx,2013-02-08 06:49:00,
2013-02-08 01:54:00,27.0,22.0,30.27,ENE,67,4.0,6.0,83,0.00,,,0.00,TxWx,2013-02-08 06:54:00,
2013-02-08 02:00:00,27.0,22.0,30.27,ENE,67,5.0,5.0,84,0.00,,,0.00,TxWx,2013-02-08 07:00:00,
2013-02-08 02:05:00,27.0,22.0,30.26,ENE,67,4.0,5.0,84,0.00,,,0.00,TxWx,2013-02-08 07:05:00,
2013-02-08 02:11:00,27.0,22.0,30.26,ENE,67,4.0,6.0,84,0.00,,,0.00,TxWx,2013-02-08 07:11:00,
2013-02-08 02:16:00,27.0,22.0,30.25,ESE,112,2.0,5.0,84,0.00,,,0.00,TxWx,2013-02-08 07:16:00,
2013-02-08 02:21:00,27.0,22.0,30.25,East,90,5.0,9.0,84,0.00,,,0.00,TxWx,2013-02-08 07:21:00,
2013-02-08 02:27:00,27.0,22.0,30.24,East,90,8.0,10.0,85,0.00,,,0.00,TxWx,2013-02-08 07:27:00,
2013-02-08 02:32:00,27.0,22.0,30.24,ENE,67,2.0,4.0,85,0.00,,,0.00,TxWx,2013-02-08 07:32:00,
2013-02-08 02:38:00,27.0,22.0,30.24,ENE,67,5.0,6.0,85,0.00,,,0.00,TxWx,2013-02-08 07:38:00,
2013-02-08 02:43:00,27.0,22.0,30.24,NE,45,6.0,8.0,85,0.00,,,0.00,TxWx,2013-02-08 07:43:00,
2013-02-08 02:48:00,27.0,22.0,30.24,NE,45,3.0,5.0,85,0.00,,,0.00,TxWx,2013-02-08 07:48:00,
2013-02-08 02:54:00,27.0,22.0,30.24,NE,45,3.0,6.0,85,0.00,,,0.00,TxWx,2013-02-08 07:54:00,
2013-02-08 02:59:00,27.0,22.0,30.24,ENE,67,3.0,9.0,85,0.00,,,0.00,TxWx,2013-02-08 07:59:00,
2013-02-08 03:05:00,27.0,22.0,30.23,NE,45,5.0,7.0,85,0.00,,,0.00,TxWx,2013-02-08 08:05:00,
2013-02-08 03:10:00,27.0,22.0,30.23,NE,45,5.0,6.0,85,0.00,,,0.00,TxWx,2013-02-08 08:10:00,
2013-02-08 03:15:00,27.0,22.0,30.23,East,90,6.0,6.0,85,0.00,,,0.00,TxWx,2013-02-08 08:15:00,
2013-02-08 03:21:00,27.0,22.0,30.23,NE,45,5.0,6.0,85,0.00,,,0.00,TxWx,2013-02-08 08:21:00,
2013-02-08 03:26:00,27.0,22.0,30.22,ENE,67,3.0,4.0,85,0.00,,,0.00,TxWx,2013-02-08 08:26:00,
2013-02-08 03:31:00,27.0,22.0,30.22,NE,45,2.0,6.0,85,0.00,,,0.00,TxWx,2013-02-08 08:31:00,
2013-02-08 03:37:00,27.0,22.0,30.22,ENE,67,3.0,5.0,85,0.00,,,0.00,TxWx,2013-02-08 08:37:00,
2013-02-08 03:42:00,27.0,22.0,30.22,NNE,22,3.0,6.0,85,0.00,,,0.00,TxWx,2013-02-08 08:42:00,
2013-02-08 03:47:00,28.0,23.0,30.23,NE,45,3.0,4.0,85,0.00,,,0.00,TxWx,2013-02-08 08:47:00,
2013-02-08 03:52:00,28.0,23.0,30.22,ENE,67,5.0,5.0,84,0.00,,,0.00,TxWx,2013-02-08 08:52:00,
2013-02-08 03:58:00,28.0,23.0,30.21,East,90,4.0,5.0,84,0.00,,,0.00,TxWx,2013-02-08 08:58:00,
2013-02-08 04:03:00,28.0,23.0,30.21,East,90,4.0,6.0,83,0.00,,,0.00,TxWx,2013-02-08 09:03:00,
2013-02-08 04:08:00,28.0,22.0,30.21,NE,45,6.0,6.0,83,0.00,,,0.00,TxWx,2013-02-08 09:08:00,
2013-02-08 04:14:00,28.0,22.0,30.21,East,90,4.0,9.0,82,0.00,,,0.00,TxWx,2013-02-08 09:14:00,
2013-02-08 04:19:00,28.0,22.0,30.21,ENE,67,5.0,8.0,82,0.00,,,0.00,TxWx,2013-02-08 09:19:00,
2013-02-08 04:25:00,28.0,22.0,30.20,ENE,67,8.0,9.0,82,0.00,,,0.00,TxWx,2013-02-08 09:25:00,
2013-02-08 04:31:00,28.0,22.0,30.20,ENE,67,3.0,6.0,81,0.00,,,0.00,TxWx,2013-02-08 09:31:00,
2013-02-08 04:36:00,28.0,22.0,30.20,East,90,5.0,7.0,81,0.00,,,0.00,TxWx,2013-02-08 09:36:00,
2013-02-08 04:42:00,28.0,22.0,30.20,ENE,67,8.0,10.0,80,0.00,,,0.00,TxWx,2013-02-08 09:42:00,
2013-02-08 04:47:00,29.0,23.0,30.20,East,90,5.0,8.0,80,0.00,,,0.00,TxWx,2013-02-08 09:47:00,
2013-02-08 04:53:00,29.0,23.0,30.19,ESE,112,3.0,6.0,80,0.00,,,0.00,TxWx,2013-02-08 09:53:00,
2013-02-08 04:58:00,29.0,23.0,30.19,East,90,5.0,8.0,80,0.00,,,0.00,TxWx,2013-02-08 09:58:00,
2013-02-08 05:03:00,29.0,23.0,30.19,ENE,67,4.0,5.0,80,0.00,,,0.00,TxWx,2013-02-08 10:03:00,
2013-02-08 05:08:00,29.0,23.0,30.18,ENE,67,3.0,5.0,80,0.00,,,0.00,TxWx,2013-02-08 10:08:00,
2013-02-08 05:15:00,29.0,22.0,30.18,ENE,67,2.0,8.0,80,0.00,,,0.00,TxWx,2013-02-08 10:15:00,
2013-02-08 05:20:00,29.0,22.0,30.18,East,90,6.0,6.0,80,0.00,,,0.00,TxWx,2013-02-08 10:20:00,
2013-02-08 05:25:00,29.0,22.0,30.18,ENE,67,6.0,8.0,79,0.00,,,0.00,TxWx,2013-02-08 10:25:00,
2013-02-08 05:31:00,29.0,22.0,30.18,ENE,67,3.0,7.0,80,0.00,,,0.00,TxWx,2013-02-08 10:31:00,
2013-02-08 05:36:00,29.0,22.0,30.17,East,90,6.0,10.0,79,0.00,,,0.00,TxWx,2013-02-08 10:36:00,
2013-02-08 05:42:00,29.0,22.0,30.17,East,90,3.0,3.0,80,0.00,,,0.00,TxWx,2013-02-08 10:42:00,
2013-02-08 05:47:00,29.0,22.0,30.16,ENE,67,3.0,8.0,79,0.00,,,0.00,TxWx,2013-02-08 10:47:00,
2013-02-08 05:52:00,29.0,22.0,30.16,East,90,3.0,6.0,79,0.00,,,0.00,TxWx,2013-02-08 10:52:00,
2013-02-08 05:58:00,29.0,22.0,30.16,East,90,3.0,7.0,79,0.00,,,0.00,TxWx,2013-02-08 10:58:00,
2013-02-08 06:03:00,29.0,22.0,30.15,East,90,5.0,8.0,79,0.00,,,0.00,TxWx,2013-02-08 11:03:00,
2013-02-08 06:09:00,30.0,23.0,30.15,East,90,3.0,3.0,79,0.00,,,0.00,TxWx,2013-02-08 11:09:00,
2013-02-08 06:14:00,30.0,23.0,30.15,ENE,67,3.0,5.0,80,0.00,,,0.00,TxWx,2013-02-08 11:14:00,
2013-02-08 06:20:00,30.0,23.0,30.15,ENE,67,3.0,8.0,80,0.00,,,0.00,TxWx,2013-02-08 11:20:00,
2013-02-08 06:25:00,30.0,24.0,30.14,NE,45,5.0,6.0,81,0.00,,,0.00,TxWx,2013-02-08 11:25:00,
2013-02-08 06:31:00,29.0,23.0,30.14,ENE,67,3.0,5.0,83,0.00,,,0.00,TxWx,2013-02-08 11:31:00,
2013-02-08 06:36:00,29.0,24.0,30.14,East,90,3.0,6.0,84,0.00,,,0.00,TxWx,2013-02-08 11:36:00,
2013-02-08 06:41:00,29.0,24.0,30.14,ENE,67,5.0,6.0,86,0.00,,,0.00,TxWx,2013-02-08 11:41:00,
2013-02-08 06:46:00,29.0,25.0,30.14,ENE,67,1.0,3.0,87,0.00,,,0.00,TxWx,2013-02-08 11:46:00,
2013-02-08 06:52:00,29.0,25.0,30.13,East,90,5.0,5.0,89,0.00,,,0.00,TxWx,2013-02-08 11:52:00,
2013-02-08 06:57:00,29.0,25.0,30.13,ENE,67,6.0,6.0,90,0.00,,,0.00,TxWx,2013-02-08 11:57:00,
2013-02-08 07:03:00,29.0,26.0,30.13,East,90,5.0,6.0,92,0.00,,,0.00,TxWx,2013-02-08 12:03:00,
2013-02-08 07:08:00,29.0,26.0,30.13,ENE,67,4.0,4.0,93,0.00,,,0.00,TxWx,2013-02-08 12:08:00,
2013-02-08 07:14:00,29.0,27.0,30.12,NNE,22,3.0,5.0,95,0.00,,,0.00,TxWx,2013-02-08 12:14:00,
2013-02-08 07:19:00,29.0,27.0,30.12,NE,45,3.0,6.0,95,0.00,,,0.00,TxWx,2013-02-08 12:19:00,
2013-02-08 07:24:00,28.0,26.0,30.12,East,90,5.0,5.0,96,0.00,,,0.00,TxWx,2013-02-08 12:24:00,
2013-02-08 07:31:00,28.0,26.0,30.12,East,90,5.0,6.0,97,0.00,,,0.00,TxWx,2013-02-08 12:31:00,
2013-02-08 07:36:00,28.0,26.0,30.11,East,90,2.0,4.0,97,0.00,,,0.00,TxWx,2013-02-08 12:36:00,
2013-02-08 07:42:00,29.0,27.0,30.11,East,90,5.0,6.0,97,0.00,,,0.01,TxWx,2013-02-08 12:42:00,
2013-02-08 07:48:00,29.0,27.0,30.11,ENE,67,6.0,6.0,97,0.06,,,0.01,TxWx,2013-02-08 12:48:00,
2013-02-08 07:53:00,29.0,27.0,30.11,ENE,67,2.0,6.0,98,0.06,,,0.01,TxWx,2013-02-08 12:53:00,
2013-02-08 07:58:00,29.0,27.0,30.10,East,90,3.0,3.0,98,0.00,,,0.01,TxWx,2013-02-08 12:58:00,
2013-02-08 08:04:00,29.0,27.0,30.10,East,90,5.0,6.0,98,0.00,,,0.01,TxWx,2013-02-08 13:04:00,
2013-02-08 08:10:00,29.0,27.0,30.10,ESE,112,4.0,6.0,98,0.00,,,0.01,TxWx,2013-02-08 13:10:00,
2013-02-08 08:15:00,29.0,27.0,30.10,ENE,67,3.0,4.0,97,0.00,,,0.01,TxWx,2013-02-08 13:15:00,
2013-02-08 08:21:00,29.0,27.0,30.10,NE,45,3.0,4.0,97,0.00,,,0.01,TxWx,2013-02-08 13:21:00,
2013-02-08 08:26:00,29.0,27.0,30.09,East,90,5.0,6.0,97,0.00,,,0.01,TxWx,2013-02-08 13:26:00,
2013-02-08 08:31:00,29.0,27.0,30.09,NE,45,5.0,5.0,97,0.00,,,0.01,TxWx,2013-02-08 13:31:00,
2013-02-08 08:37:00,29.0,27.0,30.09,NE,45,4.0,6.0,97,0.00,,,0.01,TxWx,2013-02-08 13:37:00,
2013-02-08 08:43:00,30.0,28.0,30.09,WSW,247,2.0,3.0,97,0.00,,,0.01,TxWx,2013-02-08 13:43:00,
2013-02-08 08:48:00,30.0,28.0,30.08,East,90,3.0,4.0,97,0.00,,,0.01,TxWx,2013-02-08 13:48:00,
2013-02-08 08:54:00,30.0,28.0,30.08,NNE,22,3.0,3.0,97,0.00,,,0.01,TxWx,2013-02-08 13:54:00,
2013-02-08 08:59:00,30.0,28.0,30.08,ENE,67,2.0,3.0,97,0.00,,,0.01,TxWx,2013-02-08 13:59:00,
2013-02-08 09:05:00,30.0,28.0,30.08,East,90,3.0,3.0,97,0.00,,,0.01,TxWx,2013-02-08 14:05:00,
2013-02-08 09:10:00,30.0,28.0,30.08,NE,45,5.0,5.0,97,0.00,,,0.01,TxWx,2013-02-08 14:10:00,
2013-02-08 09:15:00,30.0,28.0,30.08,North,0,4.0,4.0,98,0.00,,,0.01,TxWx,2013-02-08 14:15:00,
2013-02-08 09:21:00,30.0,28.0,30.08,NNE,22,3.0,4.0,98,0.00,,,0.01,TxWx,2013-02-08 14:21:00,
2013-02-08 09:27:00,31.0,29.0,30.07,North,0,2.0,3.0,98,0.00,,,0.01,TxWx,2013-02-08 14:27:00,
2013-02-08 09:32:00,31.0,30.0,30.07,NNE,22,2.0,4.0,98,0.00,,,0.01,TxWx,2013-02-08 14:32:00,
2013-02-08 09:37:00,31.0,30.0,30.07,North,0,3.0,5.0,99,0.00,,,0.01,TxWx,2013-02-08 14:37:00,
2013-02-08 09:43:00,31.0,30.0,30.07,NNW,337,3.0,4.0,99,0.00,,,0.01,TxWx,2013-02-08 14:43:00,
2013-02-08 09:49:00,31.0,30.0,30.07,NNW,337,3.0,3.0,99,0.00,,,0.02,TxWx,2013-02-08 14:49:00,
2013-02-08 09:54:00,31.0,30.0,30.07,North,0,3.0,4.0,99,0.00,,,0.02,TxWx,2013-02-08 14:54:00,
2013-02-08 10:00:00,31.0,30.0,30.07,ENE,67,3.0,6.0,99,0.06,,,0.02,TxWx,2013-02-08 15:00:00,
2013-02-08 10:05:00,31.0,30.0,30.07,NNE,22,4.0,4.0,99,0.06,,,0.02,TxWx,2013-02-08 15:05:00,
2013-02-08 10:11:00,31.0,31.0,30.07,North,0,3.0,5.0,100,0.06,,,0.03,TxWx,2013-02-08 15:11:00,
2013-02-08 10:16:00,31.0,31.0,30.07,North,0,5.0,5.0,100,0.06,,,0.04,TxWx,2013-02-08 15:16:00,
2013-02-08 10:22:00,31.0,31.0,30.07,NE,45,5.0,5.0,100,0.06,,,0.05,TxWx,2013-02-08 15:22:00,
2013-02-08 10:27:00,31.0,31.0,30.07,North,0,1.0,2.0,100,0.06,,,0.05,TxWx,2013-02-08 15:27:00,
2013-02-08 10:33:00,32.0,32.0,30.07,NNW,337,1.0,3.0,100,0.06,,,0.06,TxWx,2013-02-08 15:33:00,
2013-02-08 10:38:00,32.0,32.0,30.07,NE,45,3.0,3.0,100,0.06,,,0.07,TxWx,2013-02-08 15:38:00,
2013-02-08 10:44:00,32.0,32.0,30.07,North,0,3.0,3.0,100,0.06,,,0.07,TxWx,2013-02-08 15:44:00,
2013-02-08 10:49:00,32.0,32.0,30.07,North,0,3.0,5.0,100,0.12,,,0.09,TxWx,2013-02-08 15:49:00,
2013-02-08 10:55:00,32.0,32.0,30.07,NNE,22,3.0,5.0,100,0.12,,,0.09,TxWx,2013-02-08 15:55:00,
2013-02-08 11:00:00,32.0,32.0,30.07,ENE,67,2.0,3.0,100,0.12,,,0.10,TxWx,2013-02-08 16:00:00,
2013-02-08 11:05:00,32.0,32.0,30.07,North,0,3.0,4.0,100,0.12,,,0.11,TxWx,2013-02-08 16:05:00,
2013-02-08 11:10:00,32.0,32.0,30.07,North,0,3.0,3.0,100,0.06,,,0.12,TxWx,2013-02-08 16:10:00,
2013-02-08 11:16:00,32.0,32.0,30.07,NNE,22,1.0,4.0,100,0.06,,,0.13,TxWx,2013-02-08 16:16:00,
2013-02-08 11:21:00,32.0,32.0,30.07,North,0,0.0,1.0,100,0.12,,,0.15,TxWx,2013-02-08 16:21:00,
2013-02-08 11:27:00,32.0,32.0,30.06,NE,45,0.0,0.0,100,0.12,,,0.16,TxWx,2013-02-08 16:27:00,
2013-02-08 11:32:00,32.0,32.0,30.06,NNE,22,0.0,0.0,100,0.12,,,0.16,TxWx,2013-02-08 16:32:00,
2013-02-08 11:38:00,32.0,32.0,30.06,NNE,22,0.0,0.0,100,0.12,,,0.17,TxWx,2013-02-08 16:38:00,
2013-02-08 11:43:00,32.0,32.0,30.06,North,0,0.0,0.0,100,0.12,,,0.17,TxWx,2013-02-08 16:43:00,
2013-02-08 11:49:00,32.0,32.0,30.06,NE,45,0.0,0.0,100,0.06,,,0.18,TxWx,2013-02-08 16:49:00,
2013-02-08 11:54:00,32.0,32.0,30.05,NNE,22,0.0,0.0,100,0.06,,,0.18,TxWx,2013-02-08 16:54:00,
2013-02-08 11:59:00,32.0,32.0,30.05,NNE,22,0.0,0.0,100,0.06,,,0.19,TxWx,2013-02-08 16:59:00,
2013-02-08 12:05:00,32.0,32.0,30.05,East,90,0.0,0.0,100,0.06,,,0.19,TxWx,2013-02-08 17:05:00,
2013-02-08 12:10:00,32.0,32.0,30.04,ENE,67,0.0,0.0,100,0.06,,,0.20,TxWx,2013-02-08 17:10:00,
2013-02-08 12:15:00,32.0,32.0,30.04,ENE,67,0.0,0.0,100,0.06,,,0.20,TxWx,2013-02-08 17:15:00,
2013-02-08 12:21:00,32.0,32.0,30.04,East,90,0.0,0.0,100,0.06,,,0.21,TxWx,2013-02-08 17:21:00,
2013-02-08 12:26:00,32.0,32.0,30.04,North,0,0.0,0.0,100,0.06,,,0.22,TxWx,2013-02-08 17:26:00,
2013-02-08 12:31:00,33.0,33.0,30.04,NNE,22,0.0,0.0,100,0.06,,,0.22,TxWx,2013-02-08 17:31:00,
2013-02-08 12:37:00,32.0,32.0,30.03,NNE,22,0.0,0.0,100,0.06,,,0.23,TxWx,2013-02-08 17:37:00,
2013-02-08 12:43:00,32.0,32.0,30.03,ENE,67,0.0,0.0,100,0.06,,,0.24,TxWx,2013-02-08 17:43:00,
2013-02-08 12:48:00,32.0,32.0,30.03,ENE,67,0.0,0.0,100,0.12,,,0.25,TxWx,2013-02-08 17:48:00,
2013-02-08 12:53:00,32.0,32.0,30.03,NE,45,0.0,0.0,100,0.12,,,0.25,TxWx,2013-02-08 17:53:00,
2013-02-08 12:58:00,33.0,33.0,30.03,NNE,22,0.0,0.0,100,0.06,,,0.26,TxWx,2013-02-08 17:58:00,
2013-02-08 13:05:00,33.0,33.0,30.03,NE,45,0.0,0.0,100,0.06,,,0.27,TxWx,2013-02-08 18:05:00,
2013-02-08 13:10:00,33.0,33.0,30.03,ENE,67,0.0,0.0,100,0.06,,,0.27,TxWx,2013-02-08 18:10:00,
2013-02-08 13:16:00,33.0,33.0,30.02,NE,45,0.0,1.0,100,0.06,,,0.28,TxWx,2013-02-08 18:16:00,
2013-02-08 13:21:00,33.0,33.0,30.03,NNE,22,0.0,0.0,100,0.12,,,0.30,TxWx,2013-02-08 18:21:00,
2013-02-08 13:27:00,33.0,33.0,30.03,NNE,22,0.0,0.0,100,0.06,,,0.30,TxWx,2013-02-08 18:27:00,
2013-02-08 13:33:00,33.0,33.0,30.03,North,0,0.0,0.0,100,0.06,,,0.32,TxWx,2013-02-08 18:33:00,
2013-02-08 13:38:00,32.0,32.0,30.03,NE,45,0.0,0.0,100,0.12,,,0.32,TxWx,2013-02-08 18:38:00,
2013-02-08 13:43:00,32.0,32.0,30.03,ENE,67,0.0,0.0,100,0.12,,,0.33,TxWx,2013-02-08 18:43:00,
2013-02-08 13:48:00,32.0,32.0,30.03,NE,45,0.0,0.0,100,0.12,,,0.34,TxWx,2013-02-08 18:48:00,
2013-02-08 13:53:00,32.0,32.0,30.03,NE,45,0.0,0.0,100,0.12,,,0.34,TxWx,2013-02-08 18:53:00,
2013-02-08 13:59:00,32.0,32.0,30.03,ENE,67,0.0,0.0,100,0.06,,,0.35,TxWx,2013-02-08 18:59:00,
2013-02-08 14:04:00,32.0,32.0,30.03,NE,45,0.0,0.0,100,0.06,,,0.35,TxWx,2013-02-08 19:04:00,
2013-02-08 14:10:00,32.0,32.0,30.03,ENE,67,0.0,0.0,100,0.06,,,0.36,TxWx,2013-02-08 19:10:00,
2013-02-08 14:15:00,32.0,32.0,30.03,ENE,67,0.0,0.0,100,0.06,,,0.37,TxWx,2013-02-08 19:15:00,
2013-02-08 14:21:00,32.0,32.0,30.03,NE,45,0.0,0.0,100,0.06,,,0.38,TxWx,2013-02-08 19:21:00,
2013-02-08 14:26:00,32.0,32.0,30.03,North,0,0.0,0.0,100,0.06,,,0.38,TxWx,2013-02-08 19:26:00,
2013-02-08 14:31:00,31.0,31.0,30.03,NW,315,0.0,0.0,100,0.06,,,0.39,TxWx,2013-02-08 19:31:00,
2013-02-08 14:37:00,30.0,29.0,30.04,NNW,337,0.0,0.0,99,0.12,,,0.40,TxWx,2013-02-08 19:37:00,
2013-02-08 14:42:00,30.0,29.0,30.04,NE,45,0.0,0.0,99,0.12,,,0.40,TxWx,2013-02-08 19:42:00,
2013-02-08 14:48:00,29.0,29.0,30.04,NNW,337,0.0,0.0,100,0.06,,,0.41,TxWx,2013-02-08 19:48:00,
2013-02-08 14:53:00,29.0,29.0,30.04,NNW,337,0.0,0.0,100,0.06,,,0.41,TxWx,2013-02-08 19:53:00,
2013-02-08 14:59:00,28.0,27.0,30.04,ENE,67,0.0,0.0,99,0.06,,,0.42,TxWx,2013-02-08 19:59:00,
2013-02-08 15:04:00,28.0,27.0,30.05,NNW,337,0.0,0.0,99,0.06,,,0.43,TxWx,2013-02-08 20:04:00,
2013-02-08 15:10:00,27.0,27.0,30.05,East,90,0.0,0.0,100,0.06,,,0.43,TxWx,2013-02-08 20:10:00,
2013-02-08 15:16:00,27.0,27.0,30.06,NNW,337,0.0,0.0,100,0.06,,,0.44,TxWx,2013-02-08 20:16:00,
2013-02-08 15:21:00,27.0,26.0,30.06,NE,45,0.0,0.0,99,0.06,,,0.44,TxWx,2013-02-08 20:21:00,
2013-02-08 15:27:00,26.0,26.0,30.06,NNW,337,0.0,0.0,100,0.00,,,0.44,TxWx,2013-02-08 20:27:00,
2013-02-08 15:32:00,26.0,26.0,30.07,NNE,22,0.0,0.0,100,0.00,,,0.44,TxWx,2013-02-08 20:32:00,
2013-02-08 15:37:00,26.0,26.0,30.07,NNW,337,0.0,0.0,100,0.00,,,0.44,TxWx,2013-02-08 20:37:00,
2013-02-08 15:42:00,25.0,25.0,30.08,NNW,337,0.0,0.0,100,0.00,,,0.44,TxWx,2013-02-08 20:42:00,
2013-02-08 15:48:00,25.0,25.0,30.08,NW,315,0.0,0.0,100,0.00,,,0.44,TxWx,2013-02-08 20:48:00,
2013-02-08 15:53:00,25.0,25.0,30.09,NNW,337,0.0,0.0,100,0.00,,,0.45,TxWx,2013-02-08 20:53:00,
2013-02-08 15:58:00,25.0,25.0,30.09,NNE,22,0.0,0.0,100,0.06,,,0.45,TxWx,2013-02-08 20:58:00,
2013-02-08 16:04:00,24.0,24.0,30.09,NNE,22,0.0,0.0,100,0.06,,,0.45,TxWx,2013-02-08 21:04:00,
2013-02-08 16:10:00,24.0,24.0,30.10,North,0,0.0,0.0,100,0.00,,,0.45,TxWx,2013-02-08 21:10:00,
2013-02-08 16:15:00,24.0,24.0,30.11,NNE,22,0.0,0.0,100,0.00,,,0.45,TxWx,2013-02-08 21:15:00,
2013-02-08 16:20:00,23.0,23.0,30.11,NNE,22,0.0,0.0,100,0.00,,,0.45,TxWx,2013-02-08 21:20:00,
2013-02-08 16:26:00,23.0,23.0,30.12,NW,315,0.0,0.0,100,0.00,,,0.45,TxWx,2013-02-08 21:26:00,
2013-02-08 16:31:00,23.0,23.0,30.12,NNE,22,0.0,0.0,100,0.00,,,0.45,TxWx,2013-02-08 21:31:00,
2013-02-08 16:36:00,23.0,23.0,30.13,NW,315,0.0,0.0,100,0.00,,,0.45,TxWx,2013-02-08 21:36:00,
2013-02-08 16:42:00,22.0,22.0,30.13,North,0,0.0,0.0,100,0.00,,,0.45,TxWx,2013-02-08 21:42:00,
2013-02-08 16:47:00,22.0,22.0,30.14,NNW,337,0.0,0.0,100,0.00,,,0.45,TxWx,2013-02-08 21:47:00,
2013-02-08 16:53:00,22.0,22.0,30.15,NNE,22,0.0,0.0,100,0.00,,,0.45,TxWx,2013-02-08 21:53:00,
2013-02-08 16:59:00,22.0,22.0,30.15,NNE,22,0.0,0.0,100,0.00,,,0.45,TxWx,2013-02-08 21:59:00,
2013-02-08 17:04:00,22.0,22.0,30.16,NNW,337,0.0,0.0,100,0.00,,,0.45,TxWx,2013-02-08 22:04:00,
2013-02-08 17:09:00,21.0,21.0,30.16,NNE,22,0.0,0.0,100,0.00,,,0.45,TxWx,2013-02-08 22:09:00,
2013-02-08 17:15:00,21.0,21.0,30.17,North,0,0.0,0.0,100,0.00,,,0.45,TxWx,2013-02-08 22:15:00,
2013-02-08 17:20:00,21.0,21.0,30.17,North,0,0.0,0.0,100,0.00,,,0.45,TxWx,2013-02-08 22:20:00,
2013-02-08 17:25:00,21.0,21.0,30.18,NW,315,0.0,0.0,100,0.00,,,0.45,TxWx,2013-02-08 22:25:00,
2013-02-08 17:30:00,21.0,21.0,30.18,WNW,292,0.0,0.0,100,0.00,,,0.45,TxWx,2013-02-08 22:30:00,
2013-02-08 17:35:00,20.0,20.0,30.19,WNW,292,0.0,0.0,100,0.00,,,0.46,TxWx,2013-02-08 22:35:00,
2013-02-08 17:41:00,20.0,20.0,30.19,North,0,0.0,0.0,100,0.06,,,0.46,TxWx,2013-02-08 22:41:00,
2013-02-08 17:47:00,20.0,20.0,30.20,NNE,22,0.0,0.0,100,0.00,,,0.46,TxWx,2013-02-08 22:47:00,
2013-02-08 17:53:00,20.0,20.0,30.21,North,0,0.0,0.0,100,0.00,,,0.46,TxWx,2013-02-08 22:53:00,
2013-02-08 17:58:00,20.0,20.0,30.21,NNW,337,0.0,0.0,100,0.00,,,0.46,TxWx,2013-02-08 22:58:00,
2013-02-08 18:03:00,20.0,20.0,30.22,North,0,0.0,0.0,100,0.00,,,0.46,TxWx,2013-02-08 23:03:00,
2013-02-08 18:09:00,20.0,20.0,30.22,NNE,22,0.0,0.0,100,0.00,,,0.46,TxWx,2013-02-08 23:09:00,
2013-02-08 18:14:00,20.0,20.0,30.23,North,0,0.0,0.0,100,0.00,,,0.46,TxWx,2013-02-08 23:14:00,
2013-02-08 18:20:00,20.0,20.0,30.23,North,0,0.0,0.0,100,0.00,,,0.46,TxWx,2013-02-08 23:20:00,
2013-02-08 18:25:00,20.0,20.0,30.23,NNW,337,0.0,0.0,100,0.00,,,0.46,TxWx,2013-02-08 23:25:00,
2013-02-08 18:31:00,20.0,20.0,30.24,NW,315,0.0,0.0,100,0.00,,,0.46,TxWx,2013-02-08 23:31:00,
2013-02-08 18:36:00,20.0,20.0,30.24,WNW,292,0.0,0.0,100,0.00,,,0.46,TxWx,2013-02-08 23:36:00,
2013-02-08 18:42:00,20.0,20.0,30.25,NW,315,0.0,0.0,100,0.00,,,0.46,TxWx,2013-02-08 23:42:00,
2013-02-08 18:47:00,19.0,19.0,30.25,WNW,292,0.0,0.0,100,0.00,,,0.46,TxWx,2013-02-08 23:47:00,
2013-02-08 18:52:00,19.0,19.0,30.26,NW,315,0.0,0.0,100,0.00,,,0.46,TxWx,2013-02-08 23:52:00,
2013-02-08 18:58:00,19.0,19.0,30.26,North,0,0.0,0.0,100,0.00,,,0.46,TxWx,2013-02-08 23:58:00,
2013-02-08 19:04:00,19.0,19.0,30.26,North,0,0.0,0.0,100,0.00,,,0.46,TxWx,2013-02-09 00:04:00,
2013-02-08 19:09:00,19.0,19.0,30.27,NW,315,0.0,0.0,100,0.00,,,0.46,TxWx,2013-02-09 00:09:00,
2013-02-08 19:15:00,19.0,19.0,30.27,NNW,337,0.0,0.0,100,0.00,,,0.46,TxWx,2013-02-09 00:15:00,
2013-02-08 19:20:00,19.0,19.0,30.27,NNW,337,0.0,0.0,100,0.00,,,0.46,TxWx,2013-02-09 00:20:00,
2013-02-08 19:26:00,19.0,19.0,30.28,NNW,337,0.0,0.0,100,0.00,,,0.46,TxWx,2013-02-09 00:26:00,
2013-02-08 19:31:00,19.0,19.0,30.28,NW,315,0.0,0.0,100,0.00,,,0.46,TxWx,2013-02-09 00:31:00,
2013-02-08 19:37:00,19.0,19.0,30.28,NNE,22,0.0,0.0,100,0.00,,,0.46,TxWx,2013-02-09 00:37:00,
2013-02-08 19:42:00,19.0,19.0,30.29,WNW,292,0.0,0.0,100,0.00,,,0.46,TxWx,2013-02-09 00:42:00,
2013-02-08 19:47:00,19.0,19.0,30.29,NW,315,0.0,0.0,100,0.00,,,0.46,TxWx,2013-02-09 00:47:00,
2013-02-08 19:53:00,19.0,19.0,30.30,WNW,292,0.0,0.0,100,0.00,,,0.46,TxWx,2013-02-09 00:53:00,
2013-02-08 19:58:00,19.0,19.0,30.30,North,0,0.0,0.0,100,0.06,,,0.47,TxWx,2013-02-09 00:58:00,
2013-02-08 20:03:00,19.0,19.0,30.31,NW,315,0.0,0.0,100,0.06,,,0.47,TxWx,2013-02-09 01:03:00,
2013-02-08 20:09:00,19.0,19.0,30.31,NW,315,0.0,0.0,100,0.00,,,0.47,TxWx,2013-02-09 01:09:00,
2013-02-08 20:14:00,19.0,19.0,30.31,NW,315,0.0,0.0,100,0.00,,,0.47,TxWx,2013-02-09 01:14:00,
2013-02-08 20:19:00,18.0,18.0,30.31,NW,315,0.0,0.0,100,0.00,,,0.47,TxWx,2013-02-09 01:19:00,
2013-02-08 20:25:00,18.0,17.0,30.31,NNW,337,0.0,0.0,99,0.00,,,0.47,TxWx,2013-02-09 01:25:00,
2013-02-08 20:30:00,18.0,18.0,30.32,NNW,337,0.0,0.0,100,0.00,,,0.47,TxWx,2013-02-09 01:30:00,
2013-02-08 20:36:00,18.0,17.0,30.32,North,0,0.0,0.0,99,0.00,,,0.47,TxWx,2013-02-09 01:36:00,
2013-02-08 20:41:00,18.0,17.0,30.33,NW,315,0.0,0.0,99,0.00,,,0.47,TxWx,2013-02-09 01:41:00,
2013-02-08 20:46:00,18.0,17.0,30.33,WNW,292,0.0,0.0,99,0.00,,,0.47,TxWx,2013-02-09 01:46:00,
2013-02-08 20:52:00,18.0,17.0,30.34,North,0,0.0,0.0,99,0.00,,,0.47,TxWx,2013-02-09 01:52:00,
2013-02-08 20:58:00,18.0,17.0,30.34,WNW,292,0.0,0.0,99,0.00,,,0.47,TxWx,2013-02-09 01:58:00,
2013-02-08 21:03:00,18.0,17.0,30.35,NNW,337,0.0,0.0,98,0.00,,,0.47,TxWx,2013-02-09 02:03:00,
2013-02-08 21:09:00,18.0,17.0,30.35,NNW,337,0.0,0.0,98,0.00,,,0.47,TxWx,2013-02-09 02:09:00,
2013-02-08 21:14:00,18.0,17.0,30.35,NNE,22,0.0,0.0,98,0.00,,,0.47,TxWx,2013-02-09 02:14:00,
2013-02-08 21:20:00,18.0,17.0,30.36,NW,315,0.0,0.0,98,0.00,,,0.47,TxWx,2013-02-09 02:20:00,
2013-02-08 21:25:00,18.0,17.0,30.36,North,0,0.0,0.0,98,0.00,,,0.47,TxWx,2013-02-09 02:25:00,
2013-02-08 21:31:00,18.0,17.0,30.36,NNW,337,0.0,0.0,99,0.00,,,0.47,TxWx,2013-02-09 02:31:00,
2013-02-08 21:36:00,18.0,17.0,30.36,NE,45,0.0,0.0,99,0.00,,,0.47,TxWx,2013-02-09 02:36:00,
2013-02-08 21:42:00,18.0,17.0,30.37,NW,315,0.0,0.0,98,0.00,,,0.47,TxWx,2013-02-09 02:42:00,
2013-02-08 21:47:00,17.0,16.0,30.37,North,0,0.0,0.0,98,0.00,,,0.47,TxWx,2013-02-09 02:47:00,
2013-02-08 21:53:00,17.0,16.0,30.37,NNW,337,0.0,0.0,98,0.00,,,0.47,TxWx,2013-02-09 02:53:00,
2013-02-08 21:58:00,17.0,16.0,30.37,NW,315,0.0,0.0,98,0.00,,,0.47,TxWx,2013-02-09 02:58:00,
2013-02-08 22:04:00,18.0,17.0,30.38,NW,315,0.0,0.0,98,0.00,,,0.47,TxWx,2013-02-09 03:04:00,
2013-02-08 22:09:00,17.0,16.0,30.38,NW,315,0.0,0.0,98,0.00,,,0.47,TxWx,2013-02-09 03:09:00,
2013-02-08 22:15:00,17.0,16.0,30.38,NW,315,0.0,0.0,98,0.00,,,0.47,TxWx,2013-02-09 03:15:00,
2013-02-08 22:20:00,17.0,16.0,30.38,WNW,292,0.0,0.0,98,0.00,,,0.47,TxWx,2013-02-09 03:20:00,
2013-02-08 22:25:00,17.0,16.0,30.38,NW,315,0.0,0.0,98,0.00,,,0.47,TxWx,2013-02-09 03:25:00,
2013-02-08 22:31:00,17.0,16.0,30.38,NNW,337,0.0,0.0,98,0.00,,,0.47,TxWx,2013-02-09 03:31:00,
2013-02-08 22:36:00,18.0,17.0,30.39,West,270,0.0,0.0,98,0.00,,,0.47,TxWx,2013-02-09 03:36:00,
2013-02-08 22:41:00,17.0,16.0,30.39,WNW,292,0.0,0.0,98,0.00,,,0.47,TxWx,2013-02-09 03:41:00,
2013-02-08 22:47:00,17.0,15.0,30.39,North,0,0.0,0.0,98,0.00,,,0.47,TxWx,2013-02-09 03:47:00,
2013-02-08 22:52:00,17.0,15.0,30.39,NW,315,0.0,0.0,98,0.00,,,0.47,TxWx,2013-02-09 03:52:00,
2013-02-08 22:58:00,17.0,16.0,30.39,NNW,337,0.0,0.0,98,0.00,,,0.00,TxWx,2013-02-09 03:58:00,
2013-02-08 23:04:00,17.0,16.0,30.39,West,270,0.0,0.0,98,0.00,,,0.00,TxWx,2013-02-09 04:04:00,
2013-02-08 23:09:00,17.0,16.0,30.39,WNW,292,0.0,0.0,98,0.00,,,0.00,TxWx,2013-02-09 04:09:00,
2013-02-08 23:15:00,17.0,16.0,30.40,North,0,0.0,0.0,98,0.00,,,0.00,TxWx,2013-02-09 04:15:00,
2013-02-08 23:20:00,17.0,16.0,30.40,NNW,337,0.0,0.0,98,0.00,,,0.00,TxWx,2013-02-09 04:20:00,
2013-02-08 23:26:00,17.0,16.0,30.40,NNW,337,0.0,0.0,98,0.00,,,0.00,TxWx,2013-02-09 04:26:00,
2013-02-08 23:31:00,17.0,16.0,30.40,North,0,0.0,0.0,99,0.00,,,0.00,TxWx,2013-02-09 04:31:00,
2013-02-08 23:36:00,17.0,16.0,30.40,WNW,292,0.0,0.0,98,0.00,,,0.00,TxWx,2013-02-09 04:36:00,
2013-02-08 23:42:00,17.0,16.0,30.41,NE,45,0.0,0.0,98,0.00,,,0.00,TxWx,2013-02-09 04:42:00,
2013-02-08 23:47:00,18.0,17.0,30.41,NNW,337,0.0,0.0,98,0.00,,,0.00,TxWx,2013-02-09 04:47:00,
2013-02-08 23:52:00,17.0,16.0,30.41,NW,315,0.0,0.0,98,0.00,,,0.00,TxWx,2013-02-09 04:52:00,
2013-02-08 23:59:00,18.0,17.0,30.41,NW,315,0.0,0.0,99,0.00,,,0.00,TxWx,2013-02-09 04:59:00,